Flight Track Log - Related Links

Times and Time Zones

All times are in EDT time to prevent confusion due to time zone crossing. See the CSH9224 flight status page for this flight to view local times or setup timezone preferences in your user account.

Time Position Orientation Groundspeed Altitude Reporting Facility
EDT Latitude Longitude Course Direction KTS MPH feet Rate Location/Type
Mon 11:37:00 AM 38.5626 81.3810 38° Northeast  Level Estimated
Mon 11:38:00 AM 38.6423 81.4626 39° Northeast  Level Estimated
Mon 11:39:00 AM 38.7219 81.5443 39° Northeast  Level Estimated
Mon 11:40:00 AM 38.8015 81.6262 39° Northeast  Level Estimated
Mon 11:41:00 AM 38.8810 81.7083 39° Northeast  Level Estimated
Mon 11:42:00 AM 38.9604 81.7906 39° Northeast  Level Estimated
Mon 11:43:00 AM 39.0398 81.8731 39° Northeast  Level Estimated
Mon 11:44:00 AM 39.1191 81.9557 39° Northeast  Level Estimated
Mon 11:45:00 AM 39.1984 82.0386 39° Northeast  Level Estimated
Mon 11:46:00 AM 39.2776 82.1216 39° Northeast  Level Estimated
Mon 11:47:00 AM 39.3567 82.2048 39° Northeast  Level Estimated
Mon 11:48:00 AM 39.4358 82.2882 39° Northeast  Level Estimated
Mon 11:49:00 AM 39.5148 82.3718 39° Northeast  Level Estimated
Mon 11:50:00 AM 39.5938 82.4556 39° Northeast  Level Estimated
Mon 11:51:00 AM 39.6727 82.5396 39° Northeast  Level Estimated
Mon 11:52:00 AM 39.7516 82.6238 39° Northeast  Level Estimated
Mon 11:53:00 AM 39.8303 82.7081 39° Northeast  Level Estimated
Mon 11:54:00 AM 39.9091 82.7927 39° Northeast  Level Estimated
Mon 11:55:00 AM 39.9877 82.8774 40° Northeast  Level Estimated
Mon 11:56:00 AM 40.0663 82.9624 40° Northeast  Level Estimated
Mon 11:57:00 AM 40.1449 83.0475 40° Northeast  Level Estimated
Mon 11:58:00 AM 40.2234 83.1329 40° Northeast  Level Estimated
Mon 11:59:00 AM 40.3018 83.2184 40° Northeast  Level Estimated
Mon 12:00:00 PM 40.3801 83.3041 40° Northeast  Level Estimated
Mon 12:01:00 PM 40.4584 83.3901 40° Northeast  Level Estimated
Mon 12:02:00 PM 40.5366 83.4762 40° Northeast  Level Estimated
Mon 12:03:00 PM 40.6148 83.5625 40° Northeast  Level Estimated
Mon 12:04:00 PM 40.6929 83.6491 40° Northeast  Level Estimated
Mon 12:05:00 PM 40.7709 83.7358 40° Northeast  Level Estimated
Mon 12:06:00 PM 40.8489 83.8228 40° Northeast  Level Estimated
Mon 12:07:00 PM 40.9268 83.9099 40° Northeast  Level Estimated
Mon 12:08:00 PM 41.0046 83.9973 40° Northeast  Level Estimated
Mon 12:09:00 PM 41.0824 84.0848 40° Northeast  Level Estimated
Mon 12:10:00 PM 41.1601 84.1726 40° Northeast  Level Estimated
Mon 12:11:00 PM 41.2377 84.2606 40° Northeast  Level Estimated
Mon 12:12:00 PM 41.3153 84.3487 40° Northeast  Level Estimated
Mon 12:13:00 PM 41.3928 84.4371 41° Northeast  Level Estimated
Mon 12:14:00 PM 41.4702 84.5258 41° Northeast  Level Estimated
Mon 12:15:00 PM 41.5476 84.6146 41° Northeast  Level Estimated
Mon 12:16:00 PM 41.6249 84.7036 41° Northeast  Level Estimated
Mon 12:17:00 PM 41.7021 84.7929 41° Northeast  Level Estimated
Mon 12:18:00 PM 41.7793 84.8823 41° Northeast  Level Estimated
Mon 12:19:00 PM 41.8564 84.9720 41° Northeast  Level Estimated
Mon 12:20:00 PM 41.9334 85.0619 41° Northeast  Level Estimated
Mon 12:21:00 PM 42.0103 85.1520 41° Northeast  Level Estimated
Mon 12:22:00 PM 42.0872 85.2423 41° Northeast  Level Estimated
Mon 12:23:00 PM 42.1640 85.3329 41° Northeast  Level Estimated
Mon 12:24:00 PM 42.2407 85.4236 41° Northeast  Level Estimated
Mon 12:25:00 PM 42.3174 85.5146 41° Northeast  Level Estimated
Mon 12:26:00 PM 42.3940 85.6058 41° Northeast  Level Estimated
Mon 12:27:00 PM 42.4705 85.6973 41° Northeast  Level Estimated
Mon 12:28:00 PM 42.5470 85.7889 41° Northeast  Level Estimated
Mon 12:29:00 PM 42.6233 85.8808 42° Northeast  Level Estimated
Mon 12:30:00 PM 42.6996 85.9729 42° Northeast  Level Estimated
Mon 12:31:00 PM 42.7758 86.0652 42° Northeast  Level Estimated
Mon 12:32:00 PM 42.8520 86.1578 42° Northeast  Level Estimated
Mon 12:33:00 PM 42.9281 86.2506 42° Northeast  Level Estimated
Mon 12:34:00 PM 43.0041 86.3436 42° Northeast  Level Estimated
Mon 12:35:00 PM 43.0800 86.4369 42° Northeast  Level Estimated
Mon 12:36:00 PM 43.1559 86.5303 42° Northeast  Level Estimated
Mon 12:37:00 PM 43.2316 86.6240 42° Northeast  Level Estimated
Mon 12:38:00 PM 43.3073 86.7180 42° Northeast  Level Estimated
Mon 12:39:00 PM 43.3829 86.8122 42° Northeast  Level Estimated
Mon 12:40:00 PM 43.4585 86.9066 42° Northeast  Level Estimated
Mon 12:41:00 PM 43.5340 87.0012 42° Northeast  Level Estimated
Mon 12:42:00 PM 43.6093 87.0961 42° Northeast  Level Estimated
Mon 12:43:00 PM 43.6846 87.1912 42° Northeast  Level Estimated
Mon 12:44:00 PM 43.7599 87.2866 42° Northeast  Level Estimated
Mon 12:45:00 PM 43.8350 87.3822 43° Northeast  Level Estimated
Mon 12:46:00 PM 43.9071 87.4742 43° Northeast  Level Estimated
Mon 12:47:00 PM 43.9071 87.4742 North  Level Estimated
Mon 12:48:00 PM 43.9071 87.4742 North  Level Estimated

Login

Don't have an account? Register now (free) for customized features, flight alerts, and more!